sensor_id;sensor_type;location;lat;lon;timestamp;pressure;altitude;pressure_sealevel;temperature
18782;BMP180;9519;51.890;8.970;2023-05-17T00:02:28;99711.00;;;7.60
18782;BMP180;9519;51.890;8.970;2023-05-17T00:07:30;99718.00;;;7.70
18782;BMP180;9519;51.890;8.970;2023-05-17T00:12:33;99719.00;;;7.70
18782;BMP180;9519;51.890;8.970;2023-05-17T00:17:35;99704.00;;;7.70
18782;BMP180;9519;51.890;8.970;2023-05-17T00:22:37;99726.00;;;7.70
18782;BMP180;9519;51.890;8.970;2023-05-17T00:27:41;99713.00;;;7.60
18782;BMP180;9519;51.890;8.970;2023-05-17T00:32:43;99733.00;;;7.70
18782;BMP180;9519;51.890;8.970;2023-05-17T00:37:46;99728.00;;;7.70
18782;BMP180;9519;51.890;8.970;2023-05-17T00:42:50;99714.00;;;7.70
18782;BMP180;9519;51.890;8.970;2023-05-17T00:47:52;99727.00;;;7.60
18782;BMP180;9519;51.890;8.970;2023-05-17T00:52:55;99718.00;;;7.60
18782;BMP180;9519;51.890;8.970;2023-05-17T00:57:58;99703.00;;;7.50
18782;BMP180;9519;51.890;8.970;2023-05-17T01:03:01;99716.00;;;7.50
18782;BMP180;9519;51.890;8.970;2023-05-17T01:08:03;99709.00;;;7.50
18782;BMP180;9519;51.890;8.970;2023-05-17T01:13:13;99728.00;;;7.50
18782;BMP180;9519;51.890;8.970;2023-05-17T01:18:22;99727.00;;;7.50
18782;BMP180;9519;51.890;8.970;2023-05-17T01:23:41;99754.00;;;7.60
18782;BMP180;9519;51.890;8.970;2023-05-17T01:28:52;99752.00;;;7.60
18782;BMP180;9519;51.890;8.970;2023-05-17T01:33:54;99724.00;;;7.60
18782;BMP180;9519;51.890;8.970;2023-05-17T01:38:58;99739.00;;;7.60
18782;BMP180;9519;51.890;8.970;2023-05-17T01:44:13;99756.00;;;7.70
18782;BMP180;9519;51.890;8.970;2023-05-17T01:49:28;99747.00;;;7.70
18782;BMP180;9519;51.890;8.970;2023-05-17T01:54:50;99759.00;;;7.70
18782;BMP180;9519;51.890;8.970;2023-05-17T02:00:02;99763.00;;;7.70
18782;BMP180;9519;51.890;8.970;2023-05-17T02:05:05;99772.00;;;7.70
18782;BMP180;9519;51.890;8.970;2023-05-17T02:10:08;99775.00;;;7.70
18782;BMP180;9519;51.890;8.970;2023-05-17T02:15:12;99771.00;;;7.80
18782;BMP180;9519;51.890;8.970;2023-05-17T02:20:16;99768.00;;;7.80
18782;BMP180;9519;51.890;8.970;2023-05-17T02:25:18;99759.00;;;7.80
18782;BMP180;9519;51.890;8.970;2023-05-17T02:30:21;99760.00;;;7.80
18782;BMP180;9519;51.890;8.970;2023-05-17T02:35:24;99757.00;;;7.70
18782;BMP180;9519;51.890;8.970;2023-05-17T02:40:26;99760.00;;;7.70
18782;BMP180;9519;51.890;8.970;2023-05-17T02:45:31;99758.00;;;7.70
18782;BMP180;9519;51.890;8.970;2023-05-17T02:50:33;99771.00;;;7.70
18782;BMP180;9519;51.890;8.970;2023-05-17T02:55:34;99769.00;;;7.70
18782;BMP180;9519;51.890;8.970;2023-05-17T03:00:38;99765.00;;;7.70
18782;BMP180;9519;51.890;8.970;2023-05-17T03:05:40;99768.00;;;7.70
18782;BMP180;9519;51.890;8.970;2023-05-17T03:10:42;99771.00;;;7.70
18782;BMP180;9519;51.890;8.970;2023-05-17T03:15:45;99775.00;;;7.70
18782;BMP180;9519;51.890;8.970;2023-05-17T03:20:47;99780.00;;;7.60
18782;BMP180;9519;51.890;8.970;2023-05-17T03:25:49;99788.00;;;7.60
18782;BMP180;9519;51.890;8.970;2023-05-17T03:30:53;99778.00;;;7.50
18782;BMP180;9519;51.890;8.970;2023-05-17T03:35:55;99792.00;;;7.50
18782;BMP180;9519;51.890;8.970;2023-05-17T03:40:57;99797.00;;;7.50
18782;BMP180;9519;51.890;8.970;2023-05-17T03:46:00;99785.00;;;7.40
18782;BMP180;9519;51.890;8.970;2023-05-17T03:51:02;99788.00;;;7.40
18782;BMP180;9519;51.890;8.970;2023-05-17T03:56:05;99796.00;;;7.40
18782;BMP180;9519;51.890;8.970;2023-05-17T04:01:08;99798.00;;;7.40
18782;BMP180;9519;51.890;8.970;2023-05-17T04:06:12;99813.00;;;7.40
18782;BMP180;9519;51.890;8.970;2023-05-17T04:11:14;99794.00;;;7.30
18782;BMP180;9519;51.890;8.970;2023-05-17T04:16:24;99807.00;;;7.40
18782;BMP180;9519;51.890;8.970;2023-05-17T04:21:26;99822.00;;;7.30
18782;BMP180;9519;51.890;8.970;2023-05-17T04:26:28;99823.00;;;7.30
18782;BMP180;9519;51.890;8.970;2023-05-17T04:31:33;99830.00;;;7.30
18782;BMP180;9519;51.890;8.970;2023-05-17T04:36:35;99839.00;;;7.30
18782;BMP180;9519;51.890;8.970;2023-05-17T04:41:37;99830.00;;;7.30
18782;BMP180;9519;51.890;8.970;2023-05-17T04:46:41;99826.00;;;7.30
18782;BMP180;9519;51.890;8.970;2023-05-17T04:51:43;99842.00;;;7.30
18782;BMP180;9519;51.890;8.970;2023-05-17T04:56:46;99849.00;;;7.40
18782;BMP180;9519;51.890;8.970;2023-05-17T05:01:49;99861.00;;;7.40
18782;BMP180;9519;51.890;8.970;2023-05-17T05:06:51;99884.00;;;7.40
18782;BMP180;9519;51.890;8.970;2023-05-17T05:11:53;99875.00;;;7.40
18782;BMP180;9519;51.890;8.970;2023-05-17T05:16:56;99878.00;;;7.50
18782;BMP180;9519;51.890;8.970;2023-05-17T05:21:58;99889.00;;;7.50
18782;BMP180;9519;51.890;8.970;2023-05-17T05:27:00;99898.00;;;7.50
18782;BMP180;9519;51.890;8.970;2023-05-17T05:32:05;99919.00;;;7.50
18782;BMP180;9519;51.890;8.970;2023-05-17T05:37:09;99887.00;;;7.50
18782;BMP180;9519;51.890;8.970;2023-05-17T05:42:12;99919.00;;;7.50
18782;BMP180;9519;51.890;8.970;2023-05-17T05:47:15;99904.00;;;7.50
18782;BMP180;9519;51.890;8.970;2023-05-17T05:52:17;99933.00;;;7.50
18782;BMP180;9519;51.890;8.970;2023-05-17T05:57:19;99948.00;;;7.60
18782;BMP180;9519;51.890;8.970;2023-05-17T06:02:23;99945.00;;;7.70
18782;BMP180;9519;51.890;8.970;2023-05-17T06:07:25;99962.00;;;7.70
18782;BMP180;9519;51.890;8.970;2023-05-17T06:12:27;99960.00;;;7.70
18782;BMP180;9519;51.890;8.970;2023-05-17T06:17:30;99952.00;;;7.80
18782;BMP180;9519;51.890;8.970;2023-05-17T06:22:32;99961.00;;;7.80
18782;BMP180;9519;51.890;8.970;2023-05-17T06:27:34;99951.00;;;7.80
18782;BMP180;9519;51.890;8.970;2023-05-17T06:32:37;99946.00;;;7.80
18782;BMP180;9519;51.890;8.970;2023-05-17T06:37:40;99946.00;;;7.80
18782;BMP180;9519;51.890;8.970;2023-05-17T06:42:42;99979.00;;;7.90
18782;BMP180;9519;51.890;8.970;2023-05-17T06:47:45;99997.00;;;8.00
18782;BMP180;9519;51.890;8.970;2023-05-17T06:52:47;99988.00;;;8.00
18782;BMP180;9519;51.890;8.970;2023-05-17T06:57:49;99986.00;;;7.90
18782;BMP180;9519;51.890;8.970;2023-05-17T07:02:53;99985.00;;;8.00
18782;BMP180;9519;51.890;8.970;2023-05-17T07:07:55;99994.00;;;8.00
18782;BMP180;9519;51.890;8.970;2023-05-17T07:12:58;99990.00;;;8.00
18782;BMP180;9519;51.890;8.970;2023-05-17T07:18:01;99987.00;;;8.10
18782;BMP180;9519;51.890;8.970;2023-05-17T07:23:03;99995.00;;;8.10
18782;BMP180;9519;51.890;8.970;2023-05-17T07:28:05;99987.00;;;8.00
18782;BMP180;9519;51.890;8.970;2023-05-17T07:33:09;100000.00;;;8.10
18782;BMP180;9519;51.890;8.970;2023-05-17T07:38:11;99959.00;;;8.10
18782;BMP180;9519;51.890;8.970;2023-05-17T07:43:13;99994.00;;;8.20
18782;BMP180;9519;51.890;8.970;2023-05-17T07:48:16;100025.00;;;8.30
18782;BMP180;9519;51.890;8.970;2023-05-17T07:53:18;100047.00;;;8.50
18782;BMP180;9519;51.890;8.970;2023-05-17T07:58:20;100083.00;;;8.70
18782;BMP180;9519;51.890;8.970;2023-05-17T08:03:23;100057.00;;;8.80
18782;BMP180;9519;51.890;8.970;2023-05-17T08:08:28;100099.00;;;8.90
18782;BMP180;9519;51.890;8.970;2023-05-17T08:13:30;100088.00;;;8.80
18782;BMP180;9519;51.890;8.970;2023-05-17T08:18:33;100078.00;;;8.80
18782;BMP180;9519;51.890;8.970;2023-05-17T08:23:39;100078.00;;;8.80
18782;BMP180;9519;51.890;8.970;2023-05-17T08:28:41;100094.00;;;8.80
18782;BMP180;9519;51.890;8.970;2023-05-17T08:33:44;100082.00;;;8.70
18782;BMP180;9519;51.890;8.970;2023-05-17T08:38:47;100089.00;;;8.80
18782;BMP180;9519;51.890;8.970;2023-05-17T08:43:49;100091.00;;;8.90
18782;BMP180;9519;51.890;8.970;2023-05-17T08:48:54;100080.00;;;9.20
18782;BMP180;9519;51.890;8.970;2023-05-17T08:53:59;100066.00;;;9.30
18782;BMP180;9519;51.890;8.970;2023-05-17T08:59:07;100098.00;;;9.50
18782;BMP180;9519;51.890;8.970;2023-05-17T09:04:11;100083.00;;;9.70
18782;BMP180;9519;51.890;8.970;2023-05-17T09:09:14;100103.00;;;9.70
18782;BMP180;9519;51.890;8.970;2023-05-17T09:14:18;100096.00;;;9.90
18782;BMP180;9519;51.890;8.970;2023-05-17T09:19:21;100101.00;;;10.10
18782;BMP180;9519;51.890;8.970;2023-05-17T09:24:27;99126.00;;;10.40
18782;BMP180;9519;51.890;8.970;2023-05-17T09:29:31;99230.00;;;10.40
18782;BMP180;9519;51.890;8.970;2023-05-17T09:34:37;99249.00;;;10.40
18782;BMP180;9519;51.890;8.970;2023-05-17T09:39:40;99250.00;;;10.20
18782;BMP180;9519;51.890;8.970;2023-05-17T09:44:49;99152.00;;;10.00
18782;BMP180;9519;51.890;8.970;2023-05-17T09:49:55;99172.00;;;10.00
18782;BMP180;9519;51.890;8.970;2023-05-17T09:55:00;99159.00;;;10.00
18782;BMP180;9519;51.890;8.970;2023-05-17T10:00:05;99185.00;;;10.20
18782;BMP180;9519;51.890;8.970;2023-05-17T10:05:14;99161.00;;;10.30
18782;BMP180;9519;51.890;8.970;2023-05-17T10:10:18;99122.00;;;10.40
18782;BMP180;9519;51.890;8.970;2023-05-17T10:15:20;99103.00;;;10.30
18782;BMP180;9519;51.890;8.970;2023-05-17T10:20:27;99234.00;;;10.30
18782;BMP180;9519;51.890;8.970;2023-05-17T10:25:31;99238.00;;;10.20
18782;BMP180;9519;51.890;8.970;2023-05-17T10:30:37;99211.00;;;10.20
18782;BMP180;9519;51.890;8.970;2023-05-17T10:35:44;99225.00;;;10.40
18782;BMP180;9519;51.890;8.970;2023-05-17T10:40:49;99255.00;;;10.40
18782;BMP180;9519;51.890;8.970;2023-05-17T10:45:54;99206.00;;;10.30
18782;BMP180;9519;51.890;8.970;2023-05-17T10:51:05;99267.00;;;10.40
18782;BMP180;9519;51.890;8.970;2023-05-17T10:56:09;99180.00;;;10.30
18782;BMP180;9519;51.890;8.970;2023-05-17T11:01:51;99163.00;;;10.40
18782;BMP180;9519;51.890;8.970;2023-05-17T11:07:23;99225.00;;;10.70
18782;BMP180;9519;51.890;8.970;2023-05-17T11:12:30;99094.00;;;10.80
18782;BMP180;9519;51.890;8.970;2023-05-17T11:17:45;99235.00;;;11.00
18782;BMP180;9519;51.890;8.970;2023-05-17T11:22:57;99135.00;;;11.00
18782;BMP180;9519;51.890;8.970;2023-05-17T11:27:59;99047.00;;;11.00
18782;BMP180;9519;51.890;8.970;2023-05-17T11:33:03;98806.00;;;11.00
18782;BMP180;9519;51.890;8.970;2023-05-17T11:38:16;98580.00;;;11.10
18782;BMP180;9519;51.890;8.970;2023-05-17T11:43:20;98695.00;;;11.30
18782;BMP180;9519;51.890;8.970;2023-05-17T11:48:24;99261.00;;;11.40
18782;BMP180;9519;51.890;8.970;2023-05-17T11:53:30;99178.00;;;11.40
18782;BMP180;9519;51.890;8.970;2023-05-17T11:58:33;99093.00;;;11.60
18782;BMP180;9519;51.890;8.970;2023-05-17T12:03:36;99292.00;;;11.80
18782;BMP180;9519;51.890;8.970;2023-05-17T12:08:43;98963.00;;;11.80
18782;BMP180;9519;51.890;8.970;2023-05-17T12:13:46;98796.00;;;11.80
18782;BMP180;9519;51.890;8.970;2023-05-17T12:18:50;99049.00;;;11.80
18782;BMP180;9519;51.890;8.970;2023-05-17T12:23:54;99239.00;;;11.80
18782;BMP180;9519;51.890;8.970;2023-05-17T12:28:58;99251.00;;;11.90
18782;BMP180;9519;51.890;8.970;2023-05-17T12:34:00;99255.00;;;12.20
18782;BMP180;9519;51.890;8.970;2023-05-17T12:39:05;99245.00;;;12.10
18782;BMP180;9519;51.890;8.970;2023-05-17T12:44:10;99205.00;;;12.10
18782;BMP180;9519;51.890;8.970;2023-05-17T12:49:15;99234.00;;;12.20
18782;BMP180;9519;51.890;8.970;2023-05-17T12:54:27;99193.00;;;12.30
18782;BMP180;9519;51.890;8.970;2023-05-17T12:59:29;99254.00;;;12.20
18782;BMP180;9519;51.890;8.970;2023-05-17T13:04:36;100348.00;;;12.30
18782;BMP180;9519;51.890;8.970;2023-05-17T13:09:46;99242.00;;;12.40
18782;BMP180;9519;51.890;8.970;2023-05-17T13:14:50;99172.00;;;12.40
18782;BMP180;9519;51.890;8.970;2023-05-17T13:19:53;99240.00;;;12.30
18782;BMP180;9519;51.890;8.970;2023-05-17T13:24:58;99193.00;;;12.20
18782;BMP180;9519;51.890;8.970;2023-05-17T13:30:00;100340.00;;;12.50
18782;BMP180;9519;51.890;8.970;2023-05-17T13:35:02;99283.00;;;12.70
18782;BMP180;9519;51.890;8.970;2023-05-17T13:40:07;99247.00;;;12.70
18782;BMP180;9519;51.890;8.970;2023-05-17T13:45:10;99244.00;;;13.00
18782;BMP180;9519;51.890;8.970;2023-05-17T13:50:13;99126.00;;;12.90
18782;BMP180;9519;51.890;8.970;2023-05-17T13:55:18;99202.00;;;13.00
18782;BMP180;9519;51.890;8.970;2023-05-17T14:00:23;99144.00;;;13.10
18782;BMP180;9519;51.890;8.970;2023-05-17T14:05:25;100331.00;;;13.00
18782;BMP180;9519;51.890;8.970;2023-05-17T14:10:29;100315.00;;;13.30
18782;BMP180;9519;51.890;8.970;2023-05-17T14:15:31;100318.00;;;13.40
18782;BMP180;9519;51.890;8.970;2023-05-17T14:20:37;100312.00;;;13.50
18782;BMP180;9519;51.890;8.970;2023-05-17T14:25:41;98845.00;;;13.80
18782;BMP180;9519;51.890;8.970;2023-05-17T14:30:44;100310.00;;;13.60
18782;BMP180;9519;51.890;8.970;2023-05-17T14:35:47;99124.00;;;13.60
18782;BMP180;9519;51.890;8.970;2023-05-17T14:40:50;100306.00;;;13.70
18782;BMP180;9519;51.890;8.970;2023-05-17T14:45:52;100295.00;;;14.30
18782;BMP180;9519;51.890;8.970;2023-05-17T14:50:54;100144.00;;;13.90
18782;BMP180;9519;51.890;8.970;2023-05-17T14:55:58;100293.00;;;14.00
18782;BMP180;9519;51.890;8.970;2023-05-17T15:01:00;100290.00;;;14.40
18782;BMP180;9519;51.890;8.970;2023-05-17T15:06:02;100289.00;;;14.80
18782;BMP180;9519;51.890;8.970;2023-05-17T15:11:08;100287.00;;;15.10
18782;BMP180;9519;51.890;8.970;2023-05-17T15:16:10;100280.00;;;15.20
18782;BMP180;9519;51.890;8.970;2023-05-17T15:21:13;100280.00;;;15.40
18782;BMP180;9519;51.890;8.970;2023-05-17T15:32:34;100293.00;;;16.40
18782;BMP180;9519;51.890;8.970;2023-05-17T15:37:36;100284.00;;;16.70
18782;BMP180;9519;51.890;8.970;2023-05-17T15:42:39;100288.00;;;16.70
18782;BMP180;9519;51.890;8.970;2023-05-17T15:47:42;100293.00;;;16.50
18782;BMP180;9519;51.890;8.970;2023-05-17T15:52:45;100293.00;;;16.40
18782;BMP180;9519;51.890;8.970;2023-05-17T15:57:48;100291.00;;;16.00
18782;BMP180;9519;51.890;8.970;2023-05-17T16:02:52;100304.00;;;15.60
18782;BMP180;9519;51.890;8.970;2023-05-17T16:07:54;100301.00;;;15.50
18782;BMP180;9519;51.890;8.970;2023-05-17T16:12:56;100304.00;;;15.90
18782;BMP180;9519;51.890;8.970;2023-05-17T16:18:00;100281.00;;;16.30
18782;BMP180;9519;51.890;8.970;2023-05-17T16:23:02;100292.00;;;16.50
18782;BMP180;9519;51.890;8.970;2023-05-17T16:28:04;100288.00;;;17.10
18782;BMP180;9519;51.890;8.970;2023-05-17T16:33:07;100283.00;;;17.60
18782;BMP180;9519;51.890;8.970;2023-05-17T16:38:10;100295.00;;;17.90
18782;BMP180;9519;51.890;8.970;2023-05-17T16:43:12;100293.00;;;18.10
18782;BMP180;9519;51.890;8.970;2023-05-17T16:48:17;100295.00;;;18.20
18782;BMP180;9519;51.890;8.970;2023-05-17T16:53:19;100303.00;;;18.20
18782;BMP180;9519;51.890;8.970;2023-05-17T16:58:21;100310.00;;;17.60
18782;BMP180;9519;51.890;8.970;2023-05-17T17:03:24;100320.00;;;17.20
18782;BMP180;9519;51.890;8.970;2023-05-17T17:08:26;100319.00;;;17.00
18782;BMP180;9519;51.890;8.970;2023-05-17T17:13:30;100316.00;;;16.90
18782;BMP180;9519;51.890;8.970;2023-05-17T17:18:34;100325.00;;;16.60
18782;BMP180;9519;51.890;8.970;2023-05-17T17:23:36;100326.00;;;16.00
18782;BMP180;9519;51.890;8.970;2023-05-17T17:28:39;100198.00;;;15.50
18782;BMP180;9519;51.890;8.970;2023-05-17T17:33:42;100200.00;;;15.00
18782;BMP180;9519;51.890;8.970;2023-05-17T17:38:45;100366.00;;;14.80
18782;BMP180;9519;51.890;8.970;2023-05-17T17:43:47;100372.00;;;14.70
18782;BMP180;9519;51.890;8.970;2023-05-17T17:48:50;100237.00;;;14.70
18782;BMP180;9519;51.890;8.970;2023-05-17T17:53:52;100239.00;;;14.40
18782;BMP180;9519;51.890;8.970;2023-05-17T17:58:54;100242.00;;;14.20
18782;BMP180;9519;51.890;8.970;2023-05-17T18:03:58;100248.00;;;14.00
18782;BMP180;9519;51.890;8.970;2023-05-17T18:09:00;100242.00;;;13.80
18782;BMP180;9519;51.890;8.970;2023-05-17T18:14:02;100248.00;;;13.60
18782;BMP180;9519;51.890;8.970;2023-05-17T18:19:07;100246.00;;;13.30
18782;BMP180;9519;51.890;8.970;2023-05-17T18:24:09;100248.00;;;13.10
18782;BMP180;9519;51.890;8.970;2023-05-17T18:29:12;100250.00;;;12.90
18782;BMP180;9519;51.890;8.970;2023-05-17T18:34:16;100253.00;;;12.70
18782;BMP180;9519;51.890;8.970;2023-05-17T18:39:18;100261.00;;;12.40
18782;BMP180;9519;51.890;8.970;2023-05-17T18:44:20;100255.00;;;12.20
18782;BMP180;9519;51.890;8.970;2023-05-17T18:49:24;100258.00;;;12.10
18782;BMP180;9519;51.890;8.970;2023-05-17T18:54:27;100258.00;;;11.90
18782;BMP180;9519;51.890;8.970;2023-05-17T18:59:29;100268.00;;;11.80
18782;BMP180;9519;51.890;8.970;2023-05-17T19:04:33;100264.00;;;11.60
18782;BMP180;9519;51.890;8.970;2023-05-17T19:09:35;100266.00;;;11.40
18782;BMP180;9519;51.890;8.970;2023-05-17T19:14:38;100287.00;;;11.30
18782;BMP180;9519;51.890;8.970;2023-05-17T19:19:42;100281.00;;;11.10
18782;BMP180;9519;51.890;8.970;2023-05-17T19:24:44;100277.00;;;10.90
18782;BMP180;9519;51.890;8.970;2023-05-17T19:29:46;100288.00;;;10.70
18782;BMP180;9519;51.890;8.970;2023-05-17T19:34:51;100285.00;;;10.50
18782;BMP180;9519;51.890;8.970;2023-05-17T19:39:54;100290.00;;;10.40
18782;BMP180;9519;51.890;8.970;2023-05-17T19:44:56;100310.00;;;10.20
18782;BMP180;9519;51.890;8.970;2023-05-17T19:49:59;100285.00;;;10.00
18782;BMP180;9519;51.890;8.970;2023-05-17T19:55:02;100275.00;;;9.80
18782;BMP180;9519;51.890;8.970;2023-05-17T20:00:06;100285.00;;;9.60
18782;BMP180;9519;51.890;8.970;2023-05-17T20:05:10;100288.00;;;9.50
18782;BMP180;9519;51.890;8.970;2023-05-17T20:10:12;100288.00;;;9.40
18782;BMP180;9519;51.890;8.970;2023-05-17T20:15:14;100285.00;;;9.20
18782;BMP180;9519;51.890;8.970;2023-05-17T20:20:17;100289.00;;;9.00
18782;BMP180;9519;51.890;8.970;2023-05-17T20:25:22;100282.00;;;8.90
18782;BMP180;9519;51.890;8.970;2023-05-17T20:30:25;100308.00;;;8.80
18782;BMP180;9519;51.890;8.970;2023-05-17T20:35:28;100281.00;;;8.70
18782;BMP180;9519;51.890;8.970;2023-05-17T20:40:30;100293.00;;;8.50
18782;BMP180;9519;51.890;8.970;2023-05-17T20:45:32;100303.00;;;8.50
18782;BMP180;9519;51.890;8.970;2023-05-17T20:50:36;100301.00;;;8.50
18782;BMP180;9519;51.890;8.970;2023-05-17T20:55:38;100318.00;;;8.40
18782;BMP180;9519;51.890;8.970;2023-05-17T21:00:41;100330.00;;;8.30
18782;BMP180;9519;51.890;8.970;2023-05-17T21:05:44;100324.00;;;8.20
18782;BMP180;9519;51.890;8.970;2023-05-17T21:10:46;100315.00;;;8.10
18782;BMP180;9519;51.890;8.970;2023-05-17T21:15:49;100320.00;;;8.00
18782;BMP180;9519;51.890;8.970;2023-05-17T21:20:53;100324.00;;;7.90
18782;BMP180;9519;51.890;8.970;2023-05-17T21:25:55;100311.00;;;7.70
18782;BMP180;9519;51.890;8.970;2023-05-17T21:30:58;100317.00;;;7.60
18782;BMP180;9519;51.890;8.970;2023-05-17T21:36:01;100324.00;;;7.50
18782;BMP180;9519;51.890;8.970;2023-05-17T21:41:03;100317.00;;;7.40
18782;BMP180;9519;51.890;8.970;2023-05-17T21:46:05;100324.00;;;7.30
18782;BMP180;9519;51.890;8.970;2023-05-17T21:51:09;100332.00;;;7.20
18782;BMP180;9519;51.890;8.970;2023-05-17T21:56:11;100333.00;;;7.20
18782;BMP180;9519;51.890;8.970;2023-05-17T22:01:13;100319.00;;;7.00
18782;BMP180;9519;51.890;8.970;2023-05-17T22:06:21;100331.00;;;6.90
18782;BMP180;9519;51.890;8.970;2023-05-17T22:11:24;100309.00;;;6.80
18782;BMP180;9519;51.890;8.970;2023-05-17T22:16:26;100316.00;;;6.70
18782;BMP180;9519;51.890;8.970;2023-05-17T22:21:33;100301.00;;;6.50
18782;BMP180;9519;51.890;8.970;2023-05-17T22:26:35;100303.00;;;6.40
18782;BMP180;9519;51.890;8.970;2023-05-17T22:31:38;100306.00;;;6.40
18782;BMP180;9519;51.890;8.970;2023-05-17T22:36:42;100274.00;;;6.30
18782;BMP180;9519;51.890;8.970;2023-05-17T22:41:44;100292.00;;;6.20
18782;BMP180;9519;51.890;8.970;2023-05-17T22:46:46;100276.00;;;6.10
18782;BMP180;9519;51.890;8.970;2023-05-17T22:51:49;100267.00;;;6.00
18782;BMP180;9519;51.890;8.970;2023-05-17T22:56:51;100296.00;;;6.00
18782;BMP180;9519;51.890;8.970;2023-05-17T23:01:53;100250.00;;;5.90
18782;BMP180;9519;51.890;8.970;2023-05-17T23:06:57;100280.00;;;5.80
18782;BMP180;9519;51.890;8.970;2023-05-17T23:12:01;100273.00;;;5.70
18782;BMP180;9519;51.890;8.970;2023-05-17T23:17:06;100258.00;;;5.60
18782;BMP180;9519;51.890;8.970;2023-05-17T23:22:09;100256.00;;;5.50
18782;BMP180;9519;51.890;8.970;2023-05-17T23:27:11;100226.00;;;5.40
18782;BMP180;9519;51.890;8.970;2023-05-17T23:32:13;100247.00;;;5.40
18782;BMP180;9519;51.890;8.970;2023-05-17T23:37:16;100227.00;;;5.30
18782;BMP180;9519;51.890;8.970;2023-05-17T23:42:19;100231.00;;;5.30
18782;BMP180;9519;51.890;8.970;2023-05-17T23:47:22;100227.00;;;5.20
18782;BMP180;9519;51.890;8.970;2023-05-17T23:52:25;100198.00;;;5.20
18782;BMP180;9519;51.890;8.970;2023-05-17T23:57:32;100231.00;;;5.10
